sensor_id;sensor_type;location;lat;lon;timestamp;pressure;altitude;pressure_sealevel;temperature;humidity
47524;BME280;33253;42.144;25.884;2023-02-28T00:00:11;100971.25;;;9.86;100.00
47524;BME280;33253;42.144;25.884;2023-02-28T00:02:41;101012.84;;;10.12;100.00
47524;BME280;33253;42.144;25.884;2023-02-28T00:05:09;101021.84;;;10.20;100.00
47524;BME280;33253;42.144;25.884;2023-02-28T00:07:35;101008.59;;;10.12;100.00
47524;BME280;33253;42.144;25.884;2023-02-28T00:10:01;101023.63;;;10.03;100.00
47524;BME280;33253;42.144;25.884;2023-02-28T00:12:26;100974.09;;;9.74;100.00
47524;BME280;33253;42.144;25.884;2023-02-28T00:14:52;101025.78;;;9.94;100.00
47524;BME280;33253;42.144;25.884;2023-02-28T00:17:20;101030.06;;;9.93;100.00
47524;BME280;33253;42.144;25.884;2023-02-28T00:19:50;101033.50;;;9.94;100.00
47524;BME280;33253;42.144;25.884;2023-02-28T00:22:20;101037.34;;;10.02;100.00
47524;BME280;33253;42.144;25.884;2023-02-28T00:25:06;101046.78;;;10.01;100.00
47524;BME280;33253;42.144;25.884;2023-02-28T00:27:32;101054.75;;;10.06;100.00
47524;BME280;33253;42.144;25.884;2023-02-28T00:29:58;101033.38;;;9.91;100.00
47524;BME280;33253;42.144;25.884;2023-02-28T00:32:23;101064.59;;;9.97;100.00
47524;BME280;33253;42.144;25.884;2023-02-28T00:34:49;101064.16;;;9.87;100.00
47524;BME280;33253;42.144;25.884;2023-02-28T00:37:14;101056.13;;;9.81;100.00
47524;BME280;33253;42.144;25.884;2023-02-28T00:39:41;101062.97;;;9.81;100.00
47524;BME280;33253;42.144;25.884;2023-02-28T00:42:27;101072.75;;;9.88;100.00
47524;BME280;33253;42.144;25.884;2023-02-28T00:44:54;101071.53;;;9.98;100.00
47524;BME280;33253;42.144;25.884;2023-02-28T00:47:20;101077.00;;;10.04;100.00
47524;BME280;33253;42.144;25.884;2023-02-28T00:49:46;101074.50;;;10.06;100.00
47524;BME280;33253;42.144;25.884;2023-02-28T00:52:11;101085.25;;;10.15;100.00
47524;BME280;33253;42.144;25.884;2023-02-28T00:54:37;101060.19;;;10.12;100.00
47524;BME280;33253;42.144;25.884;2023-02-28T00:57:03;101087.59;;;10.10;100.00
47524;BME280;33253;42.144;25.884;2023-02-28T00:59:29;101080.81;;;9.94;100.00
47524;BME280;33253;42.144;25.884;2023-02-28T01:01:55;101094.13;;;9.85;100.00
47524;BME280;33253;42.144;25.884;2023-02-28T01:04:20;101096.72;;;9.85;100.00
47524;BME280;33253;42.144;25.884;2023-02-28T01:06:46;101095.41;;;9.94;100.00
47524;BME280;33253;42.144;25.884;2023-02-28T01:09:12;101090.56;;;10.00;100.00
47524;BME280;33253;42.144;25.884;2023-02-28T01:11:57;101095.16;;;10.06;100.00
47524;BME280;33253;42.144;25.884;2023-02-28T01:14:23;101103.81;;;10.08;100.00
47524;BME280;33253;42.144;25.884;2023-02-28T01:16:48;101068.03;;;9.79;100.00
47524;BME280;33253;42.144;25.884;2023-02-28T01:19:14;101088.78;;;9.99;100.00
47524;BME280;33253;42.144;25.884;2023-02-28T01:21:39;101096.03;;;10.06;100.00
47524;BME280;33253;42.144;25.884;2023-02-28T01:24:05;101101.97;;;10.05;100.00
47524;BME280;33253;42.144;25.884;2023-02-28T01:26:32;101104.13;;;10.14;100.00
47524;BME280;33253;42.144;25.884;2023-02-28T01:28:58;101102.88;;;10.06;100.00
47524;BME280;33253;42.144;25.884;2023-02-28T01:31:23;101106.16;;;10.03;100.00
47524;BME280;33253;42.144;25.884;2023-02-28T01:33:49;101114.88;;;10.05;100.00
47524;BME280;33253;42.144;25.884;2023-02-28T01:36:16;101116.53;;;9.86;100.00
47524;BME280;33253;42.144;25.884;2023-02-28T01:38:42;101129.94;;;9.79;100.00
47524;BME280;33253;42.144;25.884;2023-02-28T01:41:09;101132.28;;;9.75;100.00
47524;BME280;33253;42.144;25.884;2023-02-28T01:46:08;101100.09;;;9.50;100.00
47524;BME280;33253;42.144;25.884;2023-02-28T01:48:36;101123.91;;;9.46;100.00
47524;BME280;33253;42.144;25.884;2023-02-28T01:51:05;101130.63;;;9.42;100.00
47524;BME280;33253;42.144;25.884;2023-02-28T01:53:47;101103.66;;;9.19;100.00
47524;BME280;33253;42.144;25.884;2023-02-28T01:56:17;101146.81;;;9.39;100.00
47524;BME280;33253;42.144;25.884;2023-02-28T01:58:51;101158.16;;;9.27;100.00
47524;BME280;33253;42.144;25.884;2023-02-28T02:01:18;101149.56;;;9.26;100.00
47524;BME280;33253;42.144;25.884;2023-02-28T02:03:51;101111.94;;;9.13;100.00
47524;BME280;33253;42.144;25.884;2023-02-28T02:06:25;101156.22;;;9.39;100.00
47524;BME280;33253;42.144;25.884;2023-02-28T02:08:53;101154.13;;;9.32;99.88
47524;BME280;33253;42.144;25.884;2023-02-28T02:11:19;101160.59;;;9.23;99.43
47524;BME280;33253;42.144;25.884;2023-02-28T02:27:37;101162.53;;;8.65;100.00
47524;BME280;33253;42.144;25.884;2023-02-28T02:40:56;101190.56;;;8.75;100.00
47524;BME280;33253;42.144;25.884;2023-02-28T02:43:34;101180.97;;;8.87;100.00
47524;BME280;33253;42.144;25.884;2023-02-28T02:46:12;101160.09;;;8.83;100.00
47524;BME280;33253;42.144;25.884;2023-02-28T02:48:41;101146.56;;;8.70;100.00
47524;BME280;33253;42.144;25.884;2023-02-28T02:51:16;101182.44;;;8.99;100.00
47524;BME280;33253;42.144;25.884;2023-02-28T02:53:47;101172.84;;;8.96;100.00
47524;BME280;33253;42.144;25.884;2023-02-28T02:56:17;101179.56;;;9.09;100.00
47524;BME280;33253;42.144;25.884;2023-02-28T02:58:47;101189.22;;;9.13;99.88
47524;BME280;33253;42.144;25.884;2023-02-28T03:01:15;101176.09;;;9.09;99.87
47524;BME280;33253;42.144;25.884;2023-02-28T03:03:50;101186.47;;;9.10;100.00
47524;BME280;33253;42.144;25.884;2023-02-28T03:06:15;101182.38;;;9.14;99.90
47524;BME280;33253;42.144;25.884;2023-02-28T03:08:41;101181.16;;;9.07;99.66
47524;BME280;33253;42.144;25.884;2023-02-28T03:11:13;101180.34;;;9.08;100.00
47524;BME280;33253;42.144;25.884;2023-02-28T03:16:36;101194.47;;;9.15;99.90
47524;BME280;33253;42.144;25.884;2023-02-28T03:19:18;101198.31;;;9.06;99.70
47524;BME280;33253;42.144;25.884;2023-02-28T03:27:21;101185.00;;;8.99;100.00
47524;BME280;33253;42.144;25.884;2023-02-28T03:30:04;101179.88;;;8.99;100.00
47524;BME280;33253;42.144;25.884;2023-02-28T03:32:40;101183.00;;;8.78;100.00
47524;BME280;33253;42.144;25.884;2023-02-28T03:37:39;101197.31;;;8.73;100.00
47524;BME280;33253;42.144;25.884;2023-02-28T03:40:10;101203.59;;;8.78;100.00
47524;BME280;33253;42.144;25.884;2023-02-28T03:42:40;101203.06;;;8.84;100.00
47524;BME280;33253;42.144;25.884;2023-02-28T03:45:21;101202.28;;;8.85;100.00
47524;BME280;33253;42.144;25.884;2023-02-28T03:48:05;101203.84;;;8.98;100.00
47524;BME280;33253;42.144;25.884;2023-02-28T03:50:40;101161.63;;;8.79;100.00
47524;BME280;33253;42.144;25.884;2023-02-28T03:53:08;101199.47;;;8.97;100.00
47524;BME280;33253;42.144;25.884;2023-02-28T03:55:44;101167.41;;;8.75;100.00
47524;BME280;33253;42.144;25.884;2023-02-28T03:58:33;101122.22;;;8.49;100.00
47524;BME280;33253;42.144;25.884;2023-02-28T04:01:09;101198.00;;;8.85;100.00
47524;BME280;33253;42.144;25.884;2023-02-28T04:03:38;101203.66;;;8.95;100.00
47524;BME280;33253;42.144;25.884;2023-02-28T04:06:06;101202.06;;;8.97;100.00
47524;BME280;33253;42.144;25.884;2023-02-28T04:08:32;101207.66;;;8.89;100.00
47524;BME280;33253;42.144;25.884;2023-02-28T04:11:03;101196.63;;;8.61;100.00
47524;BME280;33253;42.144;25.884;2023-02-28T04:13:31;101209.00;;;8.51;100.00
47524;BME280;33253;42.144;25.884;2023-02-28T04:15:56;101225.34;;;8.38;100.00
47524;BME280;33253;42.144;25.884;2023-02-28T04:18:22;101219.31;;;8.23;100.00
47524;BME280;33253;42.144;25.884;2023-02-28T04:20:47;101218.69;;;8.12;100.00
47524;BME280;33253;42.144;25.884;2023-02-28T04:23:12;101236.63;;;8.25;100.00
47524;BME280;33253;42.144;25.884;2023-02-28T04:25:38;101227.13;;;8.24;100.00
47524;BME280;33253;42.144;25.884;2023-02-28T04:28:05;101222.53;;;8.19;100.00
47524;BME280;33253;42.144;25.884;2023-02-28T04:30:31;101256.47;;;8.13;100.00
47524;BME280;33253;42.144;25.884;2023-02-28T04:32:58;101251.53;;;8.16;100.00
47524;BME280;33253;42.144;25.884;2023-02-28T04:35:23;101210.75;;;7.79;100.00
47524;BME280;33253;42.144;25.884;2023-02-28T04:37:49;101257.88;;;8.08;100.00
47524;BME280;33253;42.144;25.884;2023-02-28T04:40:15;101255.34;;;8.23;100.00
47524;BME280;33253;42.144;25.884;2023-02-28T04:42:40;101258.97;;;8.26;100.00
47524;BME280;33253;42.144;25.884;2023-02-28T04:45:06;101269.91;;;8.37;100.00
47524;BME280;33253;42.144;25.884;2023-02-28T04:47:35;101259.72;;;8.39;100.00
47524;BME280;33253;42.144;25.884;2023-02-28T04:50:00;101265.31;;;8.47;100.00
47524;BME280;33253;42.144;25.884;2023-02-28T04:52:27;101265.31;;;8.47;100.00
47524;BME280;33253;42.144;25.884;2023-02-28T04:54:53;101277.00;;;8.41;100.00
47524;BME280;33253;42.144;25.884;2023-02-28T04:57:18;101265.31;;;8.47;100.00
47524;BME280;33253;42.144;25.884;2023-02-28T04:59:44;101192.38;;;8.01;100.00
47524;BME280;33253;42.144;25.884;2023-02-28T05:02:09;101273.28;;;8.36;100.00
47524;BME280;33253;42.144;25.884;2023-02-28T05:04:35;101289.16;;;8.44;100.00
47524;BME280;33253;42.144;25.884;2023-02-28T05:07:02;101292.59;;;8.45;100.00
47524;BME280;33253;42.144;25.884;2023-02-28T05:09:28;101238.75;;;8.18;100.00
47524;BME280;33253;42.144;25.884;2023-02-28T05:11:54;101266.00;;;8.29;100.00
47524;BME280;33253;42.144;25.884;2023-02-28T05:14:20;101316.00;;;8.48;100.00
47524;BME280;33253;42.144;25.884;2023-02-28T05:16:45;101317.91;;;8.37;100.00
47524;BME280;33253;42.144;25.884;2023-02-28T05:19:11;101320.66;;;8.40;100.00
47524;BME280;33253;42.144;25.884;2023-02-28T05:21:40;101276.31;;;8.01;100.00
47524;BME280;33253;42.144;25.884;2023-02-28T05:24:09;101327.72;;;8.29;100.00
47524;BME280;33253;42.144;25.884;2023-02-28T05:26:37;101335.16;;;8.24;100.00
47524;BME280;33253;42.144;25.884;2023-02-28T05:29:02;101331.81;;;8.25;100.00
47524;BME280;33253;42.144;25.884;2023-02-28T05:31:28;101334.50;;;8.14;100.00
47524;BME280;33253;42.144;25.884;2023-02-28T05:33:54;101350.75;;;8.13;100.00
47524;BME280;33253;42.144;25.884;2023-02-28T05:36:20;101326.25;;;8.04;100.00
47524;BME280;33253;42.144;25.884;2023-02-28T05:38:49;101353.41;;;8.14;100.00
47524;BME280;33253;42.144;25.884;2023-02-28T05:41:15;101311.06;;;7.94;100.00
47524;BME280;33253;42.144;25.884;2023-02-28T05:43:41;101347.91;;;8.08;100.00
47524;BME280;33253;42.144;25.884;2023-02-28T05:46:08;101355.56;;;7.93;100.00
47524;BME280;33253;42.144;25.884;2023-02-28T05:48:35;101340.94;;;7.78;100.00
47524;BME280;33253;42.144;25.884;2023-02-28T05:51:01;101304.19;;;7.66;100.00
47524;BME280;33253;42.144;25.884;2023-02-28T05:53:28;101361.00;;;7.98;100.00
47524;BME280;33253;42.144;25.884;2023-02-28T05:55:53;101361.41;;;7.90;100.00
47524;BME280;33253;42.144;25.884;2023-02-28T05:58:19;101364.34;;;7.97;100.00
47524;BME280;33253;42.144;25.884;2023-02-28T06:00:45;101354.38;;;8.01;100.00
47524;BME280;33253;42.144;25.884;2023-02-28T06:03:10;101349.34;;;7.89;100.00
47524;BME280;33253;42.144;25.884;2023-02-28T06:05:36;101359.00;;;7.93;100.00
47524;BME280;33253;42.144;25.884;2023-02-28T06:08:01;101363.84;;;8.02;100.00
47524;BME280;33253;42.144;25.884;2023-02-28T06:10:27;101344.66;;;7.97;100.00
47524;BME280;33253;42.144;25.884;2023-02-28T06:12:52;101357.06;;;8.18;100.00
47524;BME280;33253;42.144;25.884;2023-02-28T06:15:17;101356.44;;;8.22;100.00
47524;BME280;33253;42.144;25.884;2023-02-28T06:17:44;101368.00;;;8.29;100.00
47524;BME280;33253;42.144;25.884;2023-02-28T06:20:11;101369.06;;;8.32;100.00
47524;BME280;33253;42.144;25.884;2023-02-28T06:22:38;101327.94;;;8.04;100.00
47524;BME280;33253;42.144;25.884;2023-02-28T06:25:04;101367.19;;;8.30;100.00
47524;BME280;33253;42.144;25.884;2023-02-28T06:27:31;101385.09;;;8.41;100.00
47524;BME280;33253;42.144;25.884;2023-02-28T06:29:57;101384.16;;;8.41;100.00
47524;BME280;33253;42.144;25.884;2023-02-28T06:32:22;101386.16;;;8.45;100.00
47524;BME280;33253;42.144;25.884;2023-02-28T06:34:48;101404.03;;;8.57;100.00
47524;BME280;33253;42.144;25.884;2023-02-28T06:37:14;101398.31;;;8.61;100.00
47524;BME280;33253;42.144;25.884;2023-02-28T06:39:39;101395.94;;;8.51;100.00
47524;BME280;33253;42.144;25.884;2023-02-28T06:42:05;101393.50;;;8.52;100.00
47524;BME280;33253;42.144;25.884;2023-02-28T06:44:30;101402.09;;;8.53;100.00
47524;BME280;33253;42.144;25.884;2023-02-28T06:47:00;101399.69;;;8.56;100.00
47524;BME280;33253;42.144;25.884;2023-02-28T06:49:29;101380.63;;;8.52;100.00
47524;BME280;33253;42.144;25.884;2023-02-28T06:51:55;101400.25;;;8.65;100.00
47524;BME280;33253;42.144;25.884;2023-02-28T06:54:20;101407.63;;;8.74;100.00
47524;BME280;33253;42.144;25.884;2023-02-28T06:56:46;101405.06;;;8.74;100.00
47524;BME280;33253;42.144;25.884;2023-02-28T06:59:12;101410.38;;;8.77;100.00
47524;BME280;33253;42.144;25.884;2023-02-28T07:01:37;101378.16;;;8.69;100.00
47524;BME280;33253;42.144;25.884;2023-02-28T07:04:04;101398.69;;;8.82;100.00
47524;BME280;33253;42.144;25.884;2023-02-28T07:06:31;101402.06;;;8.81;100.00
47524;BME280;33253;42.144;25.884;2023-02-28T07:08:58;101405.56;;;8.68;100.00
47524;BME280;33253;42.144;25.884;2023-02-28T07:11:26;101343.72;;;8.38;100.00
47524;BME280;33253;42.144;25.884;2023-02-28T07:13:55;101392.59;;;8.67;100.00
47524;BME280;33253;42.144;25.884;2023-02-28T07:16:21;101404.97;;;8.72;100.00
47524;BME280;33253;42.144;25.884;2023-02-28T07:18:47;101405.41;;;8.80;100.00
47524;BME280;33253;42.144;25.884;2023-02-28T07:21:13;101407.38;;;8.84;100.00
47524;BME280;33253;42.144;25.884;2023-02-28T07:23:39;101405.44;;;8.95;100.00
47524;BME280;33253;42.144;25.884;2023-02-28T07:26:07;101407.66;;;8.89;100.00
47524;BME280;33253;42.144;25.884;2023-02-28T07:28:36;101392.63;;;8.82;100.00
47524;BME280;33253;42.144;25.884;2023-02-28T07:31:05;101391.91;;;8.84;100.00
47524;BME280;33253;42.144;25.884;2023-02-28T07:33:31;101403.94;;;8.99;100.00
47524;BME280;33253;42.144;25.884;2023-02-28T07:36:04;101411.47;;;8.96;100.00
47524;BME280;33253;42.144;25.884;2023-02-28T07:38:30;101406.50;;;8.99;100.00
47524;BME280;33253;42.144;25.884;2023-02-28T07:40:55;101411.31;;;9.07;100.00
47524;BME280;33253;42.144;25.884;2023-02-28T07:43:21;101362.81;;;8.85;100.00
47524;BME280;33253;42.144;25.884;2023-02-28T07:45:46;101361.66;;;8.95;100.00
47524;BME280;33253;42.144;25.884;2023-02-28T07:48:12;101412.09;;;9.21;100.00
47524;BME280;33253;42.144;25.884;2023-02-28T07:50:37;101402.06;;;9.11;100.00
47524;BME280;33253;42.144;25.884;2023-02-28T07:53:03;101412.38;;;9.26;100.00
47524;BME280;33253;42.144;25.884;2023-02-28T07:55:29;101406.59;;;9.30;100.00
47524;BME280;33253;42.144;25.884;2023-02-28T07:57:56;101411.94;;;9.33;100.00
47524;BME280;33253;42.144;25.884;2023-02-28T08:00:22;101417.75;;;9.46;100.00
47524;BME280;33253;42.144;25.884;2023-02-28T08:02:48;101414.84;;;9.54;100.00
47524;BME280;33253;42.144;25.884;2023-02-28T08:05:13;101415.63;;;9.53;100.00
47524;BME280;33253;42.144;25.884;2023-02-28T08:07:39;101408.06;;;9.57;100.00
47524;BME280;33253;42.144;25.884;2023-02-28T08:10:04;101405.66;;;9.60;100.00
47524;BME280;33253;42.144;25.884;2023-02-28T08:12:30;101405.75;;;9.61;100.00
47524;BME280;33253;42.144;25.884;2023-02-28T08:14:56;101404.16;;;9.63;100.00
47524;BME280;33253;42.144;25.884;2023-02-28T08:17:21;101410.72;;;9.58;100.00
47524;BME280;33253;42.144;25.884;2023-02-28T08:19:47;101392.25;;;9.50;100.00
47524;BME280;33253;42.144;25.884;2023-02-28T08:22:12;101422.81;;;9.59;100.00
47524;BME280;33253;42.144;25.884;2023-02-28T08:24:38;101415.06;;;9.59;100.00
47524;BME280;33253;42.144;25.884;2023-02-28T08:27:05;101429.31;;;9.52;100.00
47524;BME280;33253;42.144;25.884;2023-02-28T08:29:31;101429.41;;;9.54;100.00
47524;BME280;33253;42.144;25.884;2023-02-28T08:31:56;101340.97;;;8.94;100.00
47524;BME280;33253;42.144;25.884;2023-02-28T08:34:22;101418.22;;;9.38;100.00
47524;BME280;33253;42.144;25.884;2023-02-28T08:36:48;101418.84;;;9.34;100.00
47524;BME280;33253;42.144;25.884;2023-02-28T08:39:14;101416.63;;;9.26;100.00
47524;BME280;33253;42.144;25.884;2023-02-28T08:41:39;101413.59;;;9.33;100.00
47524;BME280;33253;42.144;25.884;2023-02-28T08:44:05;101416.09;;;9.31;100.00
47524;BME280;33253;42.144;25.884;2023-02-28T08:46:30;101428.19;;;9.32;100.00
47524;BME280;33253;42.144;25.884;2023-02-28T08:48:56;101435.00;;;9.32;100.00
47524;BME280;33253;42.144;25.884;2023-02-28T08:51:25;101438.84;;;9.23;100.00
47524;BME280;33253;42.144;25.884;2023-02-28T08:54:01;101425.50;;;9.01;100.00
47524;BME280;33253;42.144;25.884;2023-02-28T08:56:27;101438.13;;;9.11;100.00
47524;BME280;33253;42.144;25.884;2023-02-28T08:58:55;101435.91;;;9.17;100.00
47524;BME280;33253;42.144;25.884;2023-02-28T09:01:27;101439.81;;;9.26;100.00
47524;BME280;33253;42.144;25.884;2023-02-28T09:03:53;101421.78;;;9.26;100.00
47524;BME280;33253;42.144;25.884;2023-02-28T09:06:20;101441.50;;;9.40;100.00
47524;BME280;33253;42.144;25.884;2023-02-28T09:08:46;101434.94;;;9.30;100.00
47524;BME280;33253;42.144;25.884;2023-02-28T09:11:12;101454.03;;;9.34;100.00
47524;BME280;33253;42.144;25.884;2023-02-28T09:13:38;101426.84;;;9.39;100.00
47524;BME280;33253;42.144;25.884;2023-02-28T09:16:05;101419.63;;;9.48;100.00
47524;BME280;33253;42.144;25.884;2023-02-28T09:18:33;101432.78;;;9.53;100.00
47524;BME280;33253;42.144;25.884;2023-02-28T09:21:05;101341.91;;;9.11;100.00
47524;BME280;33253;42.144;25.884;2023-02-28T09:23:31;101425.66;;;9.64;100.00
47524;BME280;33253;42.144;25.884;2023-02-28T09:25:57;101420.84;;;9.70;100.00
47524;BME280;33253;42.144;25.884;2023-02-28T09:28:22;101402.34;;;9.77;100.00
47524;BME280;33253;42.144;25.884;2023-02-28T09:30:50;101357.41;;;9.57;100.00
47524;BME280;33253;42.144;25.884;2023-02-28T09:33:17;101407.25;;;9.89;100.00
47524;BME280;33253;42.144;25.884;2023-02-28T09:35:44;101401.59;;;9.80;100.00
47524;BME280;33253;42.144;25.884;2023-02-28T09:38:10;101401.59;;;9.80;100.00
47524;BME280;33253;42.144;25.884;2023-02-28T09:40:39;101401.72;;;9.66;100.00
47524;BME280;33253;42.144;25.884;2023-02-28T09:43:05;101398.28;;;9.66;100.00
47524;BME280;33253;42.144;25.884;2023-02-28T09:45:41;101354.03;;;9.43;100.00
47524;BME280;33253;42.144;25.884;2023-02-28T09:48:13;101393.59;;;9.75;100.00
47524;BME280;33253;42.144;25.884;2023-02-28T09:50:46;101360.13;;;9.60;100.00
47524;BME280;33253;42.144;25.884;2023-02-28T09:53:31;101385.06;;;9.76;100.00
47524;BME280;33253;42.144;25.884;2023-02-28T09:56:08;101396.16;;;9.90;100.00
47524;BME280;33253;42.144;25.884;2023-02-28T10:01:39;101323.78;;;9.55;100.00
47524;BME280;33253;42.144;25.884;2023-02-28T10:06:51;101378.59;;;9.99;100.00
47524;BME280;33253;42.144;25.884;2023-02-28T10:09:24;101376.56;;;9.94;100.00
47524;BME280;33253;42.144;25.884;2023-02-28T10:11:52;101380.75;;;9.92;100.00
47524;BME280;33253;42.144;25.884;2023-02-28T10:14:19;101383.44;;;9.93;100.00
47524;BME280;33253;42.144;25.884;2023-02-28T10:17:03;101316.53;;;9.48;100.00
47524;BME280;33253;42.144;25.884;2023-02-28T10:19:39;101376.56;;;9.94;100.00
47524;BME280;33253;42.144;25.884;2023-02-28T10:24:40;101376.91;;;10.00;100.00
47524;BME280;33253;42.144;25.884;2023-02-28T10:29:53;101345.38;;;9.58;100.00
47524;BME280;33253;42.144;25.884;2023-02-28T10:32:22;101395.53;;;9.79;100.00
47524;BME280;33253;42.144;25.884;2023-02-28T10:35:16;101378.56;;;9.83;100.00
47524;BME280;33253;42.144;25.884;2023-02-28T10:37:44;101372.34;;;9.79;100.00
47524;BME280;33253;42.144;25.884;2023-02-28T10:40:33;101383.94;;;9.71;100.00
47524;BME280;33253;42.144;25.884;2023-02-28T10:43:04;101336.25;;;9.48;100.00
47524;BME280;33253;42.144;25.884;2023-02-28T10:45:32;101387.91;;;9.81;100.00
47524;BME280;33253;42.144;25.884;2023-02-28T10:56:20;101384.41;;;9.64;100.00
47524;BME280;33253;42.144;25.884;2023-02-28T10:59:01;101369.66;;;9.61;100.00
47524;BME280;33253;42.144;25.884;2023-02-28T11:01:44;101360.41;;;9.65;100.00
47524;BME280;33253;42.144;25.884;2023-02-28T11:09:39;101291.38;;;9.44;100.00
47524;BME280;33253;42.144;25.884;2023-02-28T11:12:23;101289.19;;;9.35;100.00
47524;BME280;33253;42.144;25.884;2023-02-28T11:14:52;101331.06;;;9.63;100.00
47524;BME280;33253;42.144;25.884;2023-02-28T11:17:23;101332.38;;;9.71;100.00
47524;BME280;33253;42.144;25.884;2023-02-28T11:19:57;101321.41;;;9.75;100.00
47524;BME280;33253;42.144;25.884;2023-02-28T11:22:25;101323.53;;;9.82;100.00
47524;BME280;33253;42.144;25.884;2023-02-28T11:24:55;101325.19;;;9.82;100.00
47524;BME280;33253;42.144;25.884;2023-02-28T11:30:00;101319.34;;;9.84;100.00
47524;BME280;33253;42.144;25.884;2023-02-28T11:32:28;101310.56;;;9.81;100.00
47524;BME280;33253;42.144;25.884;2023-02-28T11:37:37;101315.94;;;9.85;100.00
47524;BME280;33253;42.144;25.884;2023-02-28T11:40:21;101316.59;;;9.81;100.00
47524;BME280;33253;42.144;25.884;2023-02-28T11:45:36;101314.06;;;9.66;100.00
47524;BME280;33253;42.144;25.884;2023-02-28T11:48:43;101305.78;;;9.72;100.00
47524;BME280;33253;42.144;25.884;2023-02-28T11:51:18;101323.00;;;9.73;100.00
47524;BME280;33253;42.144;25.884;2023-02-28T11:53:55;101322.38;;;9.77;100.00
47524;BME280;33253;42.144;25.884;2023-02-28T11:56:25;101266.53;;;9.61;100.00
47524;BME280;33253;42.144;25.884;2023-02-28T11:58:55;101313.84;;;9.95;100.00
47524;BME280;33253;42.144;25.884;2023-02-28T12:01:38;101305.78;;;10.05;100.00
47524;BME280;33253;42.144;25.884;2023-02-28T12:07:00;101286.94;;;10.06;100.00
47524;BME280;33253;42.144;25.884;2023-02-28T12:10:09;101305.56;;;10.17;100.00
47524;BME280;33253;42.144;25.884;2023-02-28T12:28:44;101307.88;;;10.12;100.00
47524;BME280;33253;42.144;25.884;2023-02-28T12:31:17;101324.50;;;10.17;100.00
47524;BME280;33253;42.144;25.884;2023-02-28T12:33:51;101327.47;;;10.25;100.00
47524;BME280;33253;42.144;25.884;2023-02-28T12:36:19;101325.16;;;10.13;100.00
47524;BME280;33253;42.144;25.884;2023-02-28T12:39:01;101323.94;;;10.23;100.00
47524;BME280;33253;42.144;25.884;2023-02-28T12:41:42;101315.78;;;10.15;100.00
47524;BME280;33253;42.144;25.884;2023-02-28T12:44:26;101223.81;;;9.66;100.00
47524;BME280;33253;42.144;25.884;2023-02-28T12:47:00;101312.25;;;10.13;100.00
47524;BME280;33253;42.144;25.884;2023-02-28T12:49:41;101309.00;;;10.17;100.00
47524;BME280;33253;42.144;25.884;2023-02-28T12:52:08;101308.47;;;10.23;100.00
47524;BME280;33253;42.144;25.884;2023-02-28T12:57:23;101296.44;;;10.24;100.00
47524;BME280;33253;42.144;25.884;2023-02-28T12:59:58;101284.41;;;10.24;100.00
47524;BME280;33253;42.144;25.884;2023-02-28T13:10:56;101278.94;;;10.01;100.00
47524;BME280;33253;42.144;25.884;2023-02-28T13:13:27;101295.63;;;9.92;100.00
47524;BME280;33253;42.144;25.884;2023-02-28T13:16:07;101292.09;;;9.90;100.00
47524;BME280;33253;42.144;25.884;2023-02-28T13:18:39;101283.84;;;9.80;100.00
47524;BME280;33253;42.144;25.884;2023-02-28T13:21:26;101281.28;;;9.80;100.00
47524;BME280;33253;42.144;25.884;2023-02-28T13:29:01;101296.28;;;9.71;100.00
47524;BME280;33253;42.144;25.884;2023-02-28T13:31:27;101292.94;;;9.57;100.00
47524;BME280;33253;42.144;25.884;2023-02-28T13:36:39;101313.44;;;9.39;100.00
47524;BME280;33253;42.144;25.884;2023-02-28T13:42:33;101305.50;;;9.04;100.00
47524;BME280;33253;42.144;25.884;2023-02-28T13:47:41;101268.19;;;8.66;100.00
47524;BME280;33253;42.144;25.884;2023-02-28T14:06:32;101232.81;;;8.34;100.00
47524;BME280;33253;42.144;25.884;2023-02-28T14:09:05;101282.13;;;8.70;100.00
47524;BME280;33253;42.144;25.884;2023-02-28T14:11:39;101286.06;;;8.80;100.00
47524;BME280;33253;42.144;25.884;2023-02-28T14:14:07;101282.25;;;8.88;100.00
47524;BME280;33253;42.144;25.884;2023-02-28T14:16:46;101285.56;;;8.85;100.00
47524;BME280;33253;42.144;25.884;2023-02-28T14:19:17;101287.13;;;8.83;100.00
47524;BME280;33253;42.144;25.884;2023-02-28T14:30:36;101279.34;;;8.67;100.00
47524;BME280;33253;42.144;25.884;2023-02-28T14:41:30;101295.66;;;8.37;100.00
47524;BME280;33253;42.144;25.884;2023-02-28T14:43:58;101307.44;;;8.34;100.00
47524;BME280;33253;42.144;25.884;2023-02-28T14:46:28;101301.03;;;8.27;100.00
47524;BME280;33253;42.144;25.884;2023-02-28T14:48:55;101258.56;;;7.90;100.00
47524;BME280;33253;42.144;25.884;2023-02-28T14:51:21;101302.13;;;8.02;100.00
47524;BME280;33253;42.144;25.884;2023-02-28T14:53:51;101313.72;;;7.96;100.00
47524;BME280;33253;42.144;25.884;2023-02-28T14:56:38;101309.97;;;7.90;100.00
47524;BME280;33253;42.144;25.884;2023-02-28T14:59:06;101306.81;;;7.81;100.00
47524;BME280;33253;42.144;25.884;2023-02-28T15:01:47;101298.16;;;7.79;100.00
47524;BME280;33253;42.144;25.884;2023-02-28T15:04:22;101308.84;;;7.72;100.00
47524;BME280;33253;42.144;25.884;2023-02-28T15:07:13;101312.88;;;7.82;100.00
47524;BME280;33253;42.144;25.884;2023-02-28T15:09:39;101312.78;;;7.80;100.00
47524;BME280;33253;42.144;25.884;2023-02-28T15:12:05;101310.53;;;7.71;100.00
47524;BME280;33253;42.144;25.884;2023-02-28T15:14:31;101310.72;;;7.74;100.00
47524;BME280;33253;42.144;25.884;2023-02-28T15:17:01;101316.19;;;7.66;100.00